createdAt,value
2019-05-18T00:02:14.995Z,68.40
2019-05-18T00:04:44.302Z,68.70
2019-05-18T00:07:13.382Z,69.20
2019-05-18T00:09:42.745Z,68.40
2019-05-18T00:12:11.842Z,69.20
2019-05-18T00:14:45.588Z,68.80
2019-05-18T00:17:24.941Z,67.90
2019-05-18T00:19:45.501Z,68.40
2019-05-18T00:22:14.691Z,67.80
2019-05-18T00:24:43.973Z,67.80
2019-05-18T00:27:13.422Z,68.10
2019-05-18T00:29:42.703Z,68.60
2019-05-18T00:32:11.996Z,68.30
2019-05-18T00:34:41.108Z,68.00
2019-05-18T00:39:39.107Z,67.90
2019-05-18T00:42:08.253Z,68.10
2019-05-18T00:44:37.412Z,68.20
2019-05-18T00:47:06.606Z,68.80
2019-05-18T00:49:35.669Z,68.50
2019-05-18T00:52:04.816Z,69.20
2019-05-18T00:54:33.957Z,68.90
2019-05-18T00:57:02.988Z,69.30
2019-05-18T00:59:32.222Z,69.00
2019-05-18T01:02:01.509Z,68.90
2019-05-18T01:04:30.636Z,69.50
2019-05-18T01:06:59.920Z,68.90
2019-05-18T01:09:29.362Z,68.90
2019-05-18T01:11:58.458Z,69.50
2019-05-18T01:14:27.535Z,68.80
2019-05-18T01:16:56.641Z,68.70
2019-05-18T01:19:25.941Z,68.80
2019-05-18T01:21:55.152Z,69.50
2019-05-18T01:24:24.291Z,69.70
2019-05-18T01:26:53.652Z,69.50
2019-05-18T01:29:22.932Z,69.20
2019-05-18T01:31:51.991Z,70.40
2019-05-18T01:34:21.013Z,69.60
2019-05-18T01:36:50.058Z,69.70
2019-05-18T01:39:19.374Z,69.20
2019-05-18T01:41:48.297Z,69.30
2019-05-18T01:44:17.502Z,69.00
2019-05-18T01:46:46.709Z,69.70
2019-05-18T01:49:16.004Z,69.10
2019-05-18T01:51:45.161Z,69.20
2019-05-18T01:54:14.349Z,69.80
2019-05-18T01:56:43.608Z,69.10
2019-05-18T01:59:12.421Z,69.10
2019-05-18T02:01:41.685Z,70.20
2019-05-18T02:04:10.771Z,69.30
2019-05-18T02:06:39.958Z,69.40
2019-05-18T02:09:09.271Z,69.30
2019-05-18T02:11:38.373Z,70.10
2019-05-18T02:14:07.571Z,69.70
2019-05-18T02:16:36.861Z,70.50
2019-05-18T02:19:06.008Z,70.70
2019-05-18T02:21:35.082Z,71.60
2019-05-18T02:24:04.292Z,72.50
2019-05-18T02:26:33.296Z,70.90
2019-05-18T02:29:02.582Z,70.90
2019-05-18T02:31:31.791Z,70.70
2019-05-18T02:34:00.907Z,70.70
2019-05-18T02:36:30.076Z,71.40
2019-05-18T02:38:59.372Z,71.00
2019-05-18T02:41:28.687Z,71.50
2019-05-18T02:43:57.828Z,71.70
2019-05-18T02:46:26.998Z,71.20
2019-05-18T02:48:56.230Z,71.50
2019-05-18T02:51:25.241Z,70.80
2019-05-18T02:53:54.435Z,71.50
2019-05-18T02:56:23.477Z,71.30
2019-05-18T02:58:52.732Z,71.50
2019-05-18T03:01:21.797Z,71.10
2019-05-18T03:03:50.801Z,71.90
2019-05-18T03:06:19.963Z,71.00
2019-05-18T03:08:49.066Z,72.20
2019-05-18T03:11:18.043Z,71.90
2019-05-18T03:13:47.220Z,72.10
2019-05-18T03:16:16.381Z,72.10
2019-05-18T03:18:45.496Z,71.70
2019-05-18T03:21:14.559Z,72.30
2019-05-18T03:23:43.839Z,72.10
2019-05-18T03:26:13.111Z,72.60
2019-05-18T03:28:42.171Z,73.30
2019-05-18T03:31:11.384Z,72.30
2019-05-18T03:33:40.599Z,72.50
2019-05-18T03:36:09.862Z,72.90
2019-05-18T03:38:39.886Z,73.00
2019-05-18T03:41:09.009Z,73.10
2019-05-18T03:43:38.339Z,73.90
2019-05-18T03:46:07.645Z,73.70
2019-05-18T03:48:36.748Z,73.20
2019-05-18T03:51:06.874Z,73.70
2019-05-18T03:53:36.016Z,73.40
2019-05-18T03:56:05.276Z,73.20
2019-05-18T03:58:34.622Z,74.10
2019-05-18T04:01:03.624Z,73.20
2019-05-18T04:03:32.746Z,73.10
2019-05-18T04:06:02.024Z,72.80
2019-05-18T04:08:30.916Z,72.80
2019-05-18T04:11:00.049Z,73.50
2019-05-18T04:13:29.311Z,73.30
2019-05-18T04:15:58.383Z,73.50
2019-05-18T04:18:27.569Z,73.00
2019-05-18T04:20:56.500Z,72.20
2019-05-18T04:23:25.679Z,72.10
2019-05-18T04:25:54.920Z,72.60
2019-05-18T04:28:24.012Z,72.00
2019-05-18T04:30:53.006Z,72.00
2019-05-18T04:33:22.205Z,72.30
2019-05-18T04:35:51.331Z,72.00
2019-05-18T04:38:20.506Z,71.70
2019-05-18T04:40:49.581Z,71.60
2019-05-18T04:43:18.610Z,72.30
2019-05-18T04:45:47.833Z,72.20
2019-05-18T04:48:17.082Z,72.20
2019-05-18T04:50:46.292Z,71.40
2019-05-18T04:53:15.453Z,71.60
2019-05-18T04:55:44.520Z,71.40
2019-05-18T04:58:13.655Z,72.20
2019-05-18T05:00:42.786Z,71.60
2019-05-18T05:03:12.187Z,71.50
2019-05-18T05:05:41.451Z,72.10
2019-05-18T05:08:10.737Z,72.00
2019-05-18T05:10:39.958Z,71.50
2019-05-18T05:13:09.047Z,71.40
2019-05-18T05:15:38.111Z,71.30
2019-05-18T05:18:07.197Z,71.20
2019-05-18T05:20:36.444Z,71.00
2019-05-18T05:23:05.447Z,70.90
2019-05-18T05:25:34.738Z,70.90
2019-05-18T05:28:03.839Z,70.80
2019-05-18T05:30:32.932Z,70.80
2019-05-18T05:33:02.159Z,71.20
2019-05-18T05:35:31.298Z,71.20
2019-05-18T05:38:00.405Z,70.60
2019-05-18T05:40:29.869Z,70.50
2019-05-18T05:42:59.100Z,70.50
2019-05-18T05:45:28.310Z,70.60
2019-05-18T05:47:57.412Z,71.10
2019-05-18T05:50:35.412Z,70.30
2019-05-18T05:52:57.307Z,70.20
2019-05-18T05:55:26.494Z,70.00
2019-05-18T05:57:55.594Z,69.70
2019-05-18T06:00:24.565Z,70.20
2019-05-18T06:05:22.457Z,69.00
2019-05-18T06:07:51.636Z,69.60
2019-05-18T06:10:20.880Z,69.50
2019-05-18T06:12:50.102Z,68.70
2019-05-18T06:15:19.361Z,68.60
2019-05-18T06:17:48.504Z,68.60
2019-05-18T06:20:17.772Z,68.80
2019-05-18T06:22:46.949Z,69.20
2019-05-18T06:25:15.855Z,68.60
2019-05-18T06:27:45.448Z,69.20
2019-05-18T06:30:14.489Z,68.60
2019-05-18T06:32:43.723Z,68.60
2019-05-18T06:35:12.862Z,69.30
2019-05-18T06:37:42.174Z,68.60
2019-05-18T06:40:11.481Z,68.20
2019-05-18T06:42:40.699Z,68.10
2019-05-18T06:45:09.994Z,69.50
2019-05-18T06:47:39.336Z,67.70
2019-05-18T06:50:11.724Z,67.90
2019-05-18T06:52:39.560Z,67.00
2019-05-18T06:55:08.720Z,66.80
2019-05-18T06:57:37.910Z,66.60
2019-05-18T07:00:08.249Z,66.50
2019-05-18T07:02:37.523Z,66.50
2019-05-18T07:05:07.132Z,65.90
2019-05-18T07:07:36.179Z,65.70
2019-05-18T07:10:07.164Z,65.50
2019-05-18T07:12:38.834Z,66.00
2019-05-18T07:15:11.229Z,64.80
2019-05-18T07:17:40.369Z,64.90
2019-05-18T07:20:09.650Z,64.90
2019-05-18T07:22:38.862Z,65.00
2019-05-18T07:25:08.154Z,65.30
2019-05-18T07:27:37.479Z,64.80
2019-05-18T07:30:07.506Z,65.40
2019-05-18T07:32:36.695Z,64.60
2019-05-18T07:35:06.061Z,64.40
2019-05-18T07:37:35.720Z,63.50
2019-05-18T07:40:07.042Z,63.20
2019-05-18T07:42:36.327Z,63.70
2019-05-18T07:45:07.334Z,61.70
2019-05-18T07:47:36.430Z,61.40
2019-05-18T07:50:06.866Z,62.10
2019-05-18T07:52:36.077Z,61.20
2019-05-18T07:55:07.714Z,61.00
2019-05-18T07:57:40.736Z,60.70
2019-05-18T08:00:12.123Z,59.80
2019-05-18T08:02:41.334Z,59.90
2019-05-18T08:05:10.496Z,59.00
2019-05-18T08:07:42.936Z,59.10
2019-05-18T08:10:12.143Z,59.10
2019-05-18T08:12:41.177Z,58.30
2019-05-18T08:15:11.870Z,58.40
2019-05-18T08:17:45.776Z,58.70
2019-05-18T08:20:15.390Z,57.50
2019-05-18T08:23:00.953Z,56.30
2019-05-18T08:25:30.250Z,56.60
2019-05-18T08:27:59.489Z,57.70
2019-05-18T08:30:29.063Z,57.70
2019-05-18T08:32:59.780Z,55.80
2019-05-18T08:35:28.868Z,55.10
2019-05-18T08:37:57.995Z,55.90
2019-05-18T08:40:27.147Z,55.60
2019-05-18T08:42:57.376Z,54.10
2019-05-18T08:45:26.766Z,54.70
2019-05-18T08:47:55.853Z,54.90
2019-05-18T08:50:24.922Z,53.90
2019-05-18T08:52:54.222Z,54.20
2019-05-18T08:55:23.419Z,54.00
2019-05-18T08:57:54.184Z,54.20
2019-05-18T09:00:23.317Z,53.20
2019-05-18T09:02:54.717Z,54.50
2019-05-18T09:05:24.277Z,54.50
2019-05-18T09:07:54.897Z,54.80
2019-05-18T09:10:24.348Z,54.50
2019-05-18T09:12:58.088Z,53.80
2019-05-18T09:15:27.251Z,53.90
2019-05-18T09:17:56.312Z,53.70
2019-05-18T09:20:25.308Z,53.30
2019-05-18T09:22:55.005Z,54.70
2019-05-18T09:25:24.115Z,55.80
2019-05-18T09:27:53.260Z,56.20
2019-05-18T09:30:24.043Z,55.80
2019-05-18T09:32:53.331Z,53.80
2019-05-18T09:35:23.558Z,52.90
2019-05-18T09:37:53.049Z,51.30
2019-05-18T09:40:22.290Z,50.30
2019-05-18T09:42:51.552Z,49.00
2019-05-18T09:45:22.699Z,48.90
2019-05-18T09:47:52.396Z,45.40
2019-05-18T09:50:23.094Z,45.20
2019-05-18T09:52:53.835Z,44.50
2019-05-18T09:55:22.836Z,45.00
2019-05-18T09:57:51.894Z,43.80
2019-05-18T10:00:21.150Z,43.30
2019-05-18T10:02:50.298Z,44.10
2019-05-18T10:05:19.688Z,44.10
2019-05-18T10:07:48.690Z,42.90
2019-05-18T10:10:18.484Z,42.60
2019-05-18T10:12:47.875Z,41.10
2019-05-18T10:15:17.103Z,42.20
2019-05-18T10:17:46.449Z,41.30
2019-05-18T10:20:15.946Z,41.50
2019-05-18T10:22:55.468Z,42.10
2019-05-18T10:25:15.929Z,41.90
2019-05-18T10:27:45.057Z,41.60
2019-05-18T10:30:14.306Z,41.10
2019-05-18T10:32:43.521Z,40.80
2019-05-18T10:35:12.596Z,39.70
2019-05-18T10:37:41.835Z,38.60
2019-05-18T10:40:10.902Z,36.90
2019-05-18T10:42:40.149Z,37.20
2019-05-18T10:45:09.193Z,36.80
2019-05-18T10:47:38.541Z,36.00
2019-05-18T10:50:07.748Z,37.00
2019-05-18T10:52:36.831Z,37.40
2019-05-18T10:55:07.171Z,38.00
2019-05-18T10:57:36.210Z,38.50
2019-05-18T11:00:09.030Z,38.80
2019-05-18T11:02:38.329Z,39.50
2019-05-18T11:05:07.912Z,39.60
2019-05-18T11:10:09.407Z,40.40
2019-05-18T11:12:38.681Z,39.80
2019-05-18T11:15:07.965Z,40.50
2019-05-18T11:17:37.207Z,41.20
2019-05-18T11:20:10.762Z,40.40
2019-05-18T11:22:40.081Z,40.10
2019-05-18T11:25:09.446Z,40.50
2019-05-18T11:27:38.440Z,40.70
2019-05-18T11:30:08.558Z,40.00
2019-05-18T11:32:38.118Z,40.30
2019-05-18T11:35:07.674Z,39.70
2019-05-18T11:37:36.733Z,39.00
2019-05-18T11:40:08.776Z,38.00
2019-05-18T11:42:38.057Z,37.40
2019-05-18T11:45:09.439Z,36.70
2019-05-18T11:47:38.639Z,36.10
2019-05-18T11:50:08.076Z,34.70
2019-05-18T11:52:37.343Z,34.70
2019-05-18T11:55:07.858Z,33.70
2019-05-18T11:57:36.934Z,33.90
2019-05-18T12:00:07.161Z,33.50
2019-05-18T12:02:36.339Z,33.00
2019-05-18T12:05:06.930Z,30.20
2019-05-18T12:07:36.149Z,30.50
2019-05-18T12:10:09.101Z,29.40
2019-05-18T12:12:38.137Z,29.90
2019-05-18T12:15:09.155Z,30.00
2019-05-18T12:17:38.137Z,30.00
2019-05-18T12:20:07.829Z,30.10
2019-05-18T12:22:37.114Z,30.80
2019-05-18T12:25:08.379Z,30.80
2019-05-18T12:27:37.760Z,31.50
2019-05-18T12:30:08.144Z,31.70
2019-05-18T12:32:37.351Z,31.90
2019-05-18T12:35:09.449Z,31.90
2019-05-18T12:37:38.562Z,31.50
2019-05-18T12:40:08.283Z,30.30
2019-05-18T12:42:37.269Z,29.60
2019-05-18T12:45:06.744Z,29.50
2019-05-18T12:47:36.008Z,30.10
2019-05-18T12:50:09.504Z,29.60
2019-05-18T12:52:38.706Z,29.30
2019-05-18T12:55:07.915Z,29.50
2019-05-18T12:57:37.320Z,28.80
2019-05-18T13:00:10.679Z,28.00
2019-05-18T13:02:40.121Z,28.60
2019-05-18T13:05:09.321Z,28.80
2019-05-18T13:07:38.334Z,28.90
2019-05-18T13:10:11.210Z,28.40
2019-05-18T13:12:40.510Z,28.90
2019-05-18T13:15:10.214Z,28.60
2019-05-18T13:17:39.597Z,27.90
2019-05-18T13:20:09.002Z,28.30
2019-05-18T13:22:38.250Z,28.30
2019-05-18T13:25:07.477Z,27.60
2019-05-18T13:27:39.434Z,27.60
2019-05-18T13:30:08.802Z,28.10
2019-05-18T13:32:38.095Z,28.30
2019-05-18T13:35:08.033Z,28.50
2019-05-18T13:37:37.268Z,28.70
2019-05-18T13:40:06.806Z,27.50
2019-05-18T13:42:35.802Z,27.80
2019-05-18T13:45:06.585Z,27.10
2019-05-18T13:47:35.602Z,27.70
2019-05-18T13:50:05.177Z,28.00
2019-05-18T13:52:34.383Z,28.90
2019-05-18T13:55:05.050Z,29.50
2019-05-18T13:57:34.401Z,29.90
2019-05-18T14:00:04.032Z,30.30
2019-05-18T14:02:33.300Z,31.00
2019-05-18T14:05:02.408Z,32.60
2019-05-18T14:07:31.674Z,32.70
2019-05-18T14:10:00.850Z,32.90
2019-05-18T14:12:30.241Z,32.60
2019-05-18T14:14:59.637Z,32.90
2019-05-18T14:17:28.909Z,33.30
2019-05-18T14:19:58.127Z,34.00
2019-05-18T14:22:27.334Z,33.80
2019-05-18T14:24:56.607Z,34.20
2019-05-18T14:27:25.764Z,33.50
2019-05-18T14:29:54.874Z,34.50
2019-05-18T14:32:24.201Z,34.50
2019-05-18T14:34:53.608Z,34.80
2019-05-18T14:37:22.841Z,34.90
2019-05-18T14:39:52.316Z,34.80
2019-05-18T14:42:21.685Z,34.80
2019-05-18T14:44:50.907Z,34.90
2019-05-18T14:47:20.859Z,35.40
2019-05-18T14:49:50.597Z,35.80
2019-05-18T14:52:20.151Z,36.40
2019-05-18T14:54:49.509Z,37.00
2019-05-18T14:57:19.767Z,37.70
2019-05-18T14:59:49.126Z,38.60
2019-05-18T15:02:19.468Z,38.80
2019-05-18T15:04:53.095Z,40.00
2019-05-18T15:07:20.972Z,40.00
2019-05-18T15:09:50.669Z,39.90
2019-05-18T15:12:20.112Z,39.80
2019-05-18T15:14:49.395Z,40.70
2019-05-18T15:17:18.716Z,39.90
2019-05-18T15:19:47.983Z,40.50
2019-05-18T15:22:17.898Z,41.10
2019-05-18T15:24:47.880Z,40.00
2019-05-18T15:27:17.332Z,39.70
2019-05-18T15:29:46.587Z,40.50
2019-05-18T15:32:16.064Z,42.40
2019-05-18T15:34:45.277Z,42.00
2019-05-18T15:37:14.593Z,43.00
2019-05-18T15:39:43.895Z,42.70
2019-05-18T15:42:13.025Z,43.40
2019-05-18T15:44:42.241Z,44.10
2019-05-18T15:47:11.324Z,43.80
2019-05-18T15:49:40.464Z,43.70
2019-05-18T15:52:09.802Z,44.20
2019-05-18T15:54:39.506Z,44.00
2019-05-18T15:57:08.906Z,44.10
2019-05-18T15:59:38.084Z,44.90
2019-05-18T16:02:07.553Z,44.10
2019-05-18T16:04:36.569Z,44.60
2019-05-18T16:07:05.905Z,44.60
2019-05-18T16:09:35.119Z,44.20
2019-05-18T16:12:04.513Z,44.00
2019-05-18T16:14:33.792Z,44.60
2019-05-18T16:17:02.949Z,43.80
2019-05-18T16:19:32.065Z,43.80
2019-05-18T16:22:01.206Z,44.40
2019-05-18T16:24:30.541Z,44.50
2019-05-18T16:26:59.750Z,44.70
2019-05-18T16:29:29.027Z,44.10
2019-05-18T16:31:58.381Z,44.30
2019-05-18T16:34:27.599Z,44.90
2019-05-18T16:37:00.494Z,44.90
2019-05-18T16:39:27.653Z,44.40
2019-05-18T16:41:57.020Z,44.70
2019-05-18T16:44:26.117Z,45.30
2019-05-18T16:46:55.304Z,45.20
2019-05-18T16:49:24.549Z,44.70
2019-05-18T16:51:53.856Z,45.90
2019-05-18T16:54:23.055Z,45.50
2019-05-18T16:56:52.266Z,45.20
2019-05-18T16:59:21.513Z,45.80
2019-05-18T17:01:50.715Z,46.20
2019-05-18T17:04:20.125Z,46.70
2019-05-18T17:06:49.381Z,46.70
2019-05-18T17:09:18.745Z,46.40
2019-05-18T17:11:48.207Z,46.70
2019-05-18T17:14:17.512Z,46.90
2019-05-18T17:16:46.830Z,47.10
2019-05-18T17:19:16.150Z,47.90
2019-05-18T17:21:45.726Z,48.40
2019-05-18T17:24:15.487Z,49.00
2019-05-18T17:26:52.915Z,50.40
2019-05-18T17:29:16.743Z,49.90
2019-05-18T17:31:46.233Z,50.40
2019-05-18T17:34:16.324Z,50.90
2019-05-18T17:36:46.023Z,51.40
2019-05-18T17:39:16.976Z,51.80
2019-05-18T17:41:47.345Z,51.90
2019-05-18T17:44:17.169Z,52.10
2019-05-18T17:46:46.722Z,52.90
2019-05-18T17:49:26.514Z,53.20
2019-05-18T17:51:48.130Z,53.10
2019-05-18T17:54:17.861Z,53.40
2019-05-18T17:56:47.331Z,53.70
2019-05-18T17:59:16.837Z,52.70
2019-05-18T18:01:46.450Z,53.10
2019-05-18T18:04:16.550Z,52.90
2019-05-18T18:06:46.119Z,54.80
2019-05-18T18:09:15.951Z,53.70
2019-05-18T18:11:47.018Z,53.80
2019-05-18T18:14:17.373Z,53.60
2019-05-18T18:16:48.116Z,54.60
2019-05-18T18:19:19.149Z,54.90
2019-05-18T18:21:49.292Z,54.60
2019-05-18T18:24:19.579Z,54.90
2019-05-18T18:26:48.882Z,54.30
2019-05-18T18:29:18.679Z,54.30
2019-05-18T18:31:48.351Z,54.30
2019-05-18T18:34:18.333Z,54.40
2019-05-18T18:36:48.393Z,55.90
2019-05-18T18:39:18.334Z,55.70
2019-05-18T18:41:48.525Z,55.00
2019-05-18T18:44:18.485Z,55.00
2019-05-18T18:46:48.013Z,55.40
2019-05-18T18:49:18.274Z,55.40
2019-05-18T18:51:48.444Z,54.80
2019-05-18T18:54:18.252Z,56.20
2019-05-18T18:56:48.786Z,55.30
2019-05-18T18:59:19.228Z,56.10
2019-05-18T19:01:49.860Z,56.20
2019-05-18T19:04:19.984Z,55.90
2019-05-18T19:06:49.818Z,55.70
2019-05-18T19:09:20.358Z,56.00
2019-05-18T19:11:52.529Z,56.00
2019-05-18T19:14:23.477Z,55.60
2019-05-18T19:16:54.528Z,55.70
2019-05-18T19:19:24.065Z,56.60
2019-05-18T19:21:53.968Z,56.10
2019-05-18T19:24:24.526Z,56.60
2019-05-18T19:26:54.736Z,56.10
2019-05-18T19:29:25.976Z,56.10
2019-05-18T19:31:56.636Z,56.70
2019-05-18T19:34:27.382Z,56.60
2019-05-18T19:36:58.367Z,57.40
2019-05-18T19:39:29.001Z,57.60
2019-05-18T19:41:59.516Z,57.40
2019-05-18T19:44:29.980Z,57.10
2019-05-18T19:46:59.919Z,57.10
2019-05-18T19:49:30.918Z,57.40
2019-05-18T19:52:01.598Z,58.30
2019-05-18T19:54:32.740Z,57.60
2019-05-18T19:57:03.279Z,57.60
2019-05-18T19:59:34.146Z,58.10
2019-05-18T20:02:04.903Z,58.00
2019-05-18T20:05:03.917Z,57.70
2019-05-18T20:07:18.510Z,58.10
2019-05-18T20:09:52.848Z,57.90
2019-05-18T20:12:22.447Z,58.60
2019-05-18T20:14:53.211Z,57.90
2019-05-18T20:17:26.580Z,59.20
2019-05-18T20:19:58.216Z,57.80
2019-05-18T20:22:29.800Z,58.60
2019-05-18T20:25:01.584Z,59.10
2019-05-18T20:27:33.794Z,59.20
2019-05-18T20:30:06.698Z,58.50
2019-05-18T20:32:37.482Z,58.40
2019-05-18T20:35:08.505Z,58.60
2019-05-18T20:37:39.425Z,59.00
2019-05-18T20:40:11.587Z,58.40
2019-05-18T20:42:41.874Z,58.90
2019-05-18T20:45:11.946Z,60.00
2019-05-18T20:47:43.474Z,59.60
2019-05-18T20:50:13.881Z,60.40
2019-05-18T20:52:44.723Z,60.10
2019-05-18T20:55:14.686Z,59.30
2019-05-18T20:57:45.245Z,59.60
2019-05-18T21:00:15.089Z,60.40
2019-05-18T21:02:45.025Z,58.90
2019-05-18T21:05:15.522Z,59.50
2019-05-18T21:07:45.225Z,59.00
2019-05-18T21:10:14.846Z,59.70
2019-05-18T21:12:44.115Z,59.80
2019-05-18T21:15:13.321Z,59.60
2019-05-18T21:17:42.403Z,59.70
2019-05-18T21:20:11.694Z,59.60
2019-05-18T21:22:40.952Z,59.50
2019-05-18T21:25:10.838Z,59.50
2019-05-18T21:27:40.503Z,59.80
2019-05-18T21:30:09.863Z,60.50
2019-05-18T21:32:39.042Z,60.30
2019-05-18T21:35:08.384Z,60.20
2019-05-18T21:37:38.027Z,60.30
2019-05-18T21:42:36.949Z,59.50
2019-05-18T21:45:07.023Z,60.30
2019-05-18T21:47:36.469Z,59.60
2019-05-18T21:50:08.887Z,59.70
2019-05-18T21:52:37.977Z,59.50
2019-05-18T21:55:09.967Z,59.80
2019-05-18T21:57:39.269Z,59.10
2019-05-18T22:00:08.471Z,59.00
2019-05-18T22:02:37.704Z,59.00
2019-05-18T22:05:08.131Z,59.00
2019-05-18T22:07:37.214Z,59.30
2019-05-18T22:10:07.682Z,59.20
2019-05-18T22:12:36.817Z,58.60
2019-05-18T22:15:07.151Z,59.40
2019-05-18T22:17:37.679Z,59.40
2019-05-18T22:20:06.855Z,59.60
2019-05-18T22:22:36.122Z,59.50
2019-05-18T22:25:05.113Z,59.40
2019-05-18T22:27:34.279Z,59.40
2019-05-18T22:30:03.498Z,59.90
2019-05-18T22:35:01.787Z,58.60
2019-05-18T22:37:30.774Z,58.40
2019-05-18T22:39:59.831Z,58.80
2019-05-18T22:42:29.101Z,58.90
2019-05-18T22:44:58.370Z,58.40
2019-05-18T22:47:27.495Z,58.30
2019-05-18T22:49:56.592Z,58.30
2019-05-18T22:52:25.819Z,59.00
2019-05-18T22:54:55.042Z,58.70
2019-05-18T22:57:24.229Z,58.60
2019-05-18T22:59:53.483Z,58.60
2019-05-18T23:02:22.649Z,58.60
2019-05-18T23:04:51.864Z,58.50
2019-05-18T23:07:21.089Z,58.30
2019-05-18T23:09:50.264Z,58.30
2019-05-18T23:12:19.616Z,59.10
2019-05-18T23:14:48.792Z,58.80
2019-05-18T23:17:17.920Z,58.80
2019-05-18T23:19:47.153Z,59.50
2019-05-18T23:22:16.441Z,59.70
2019-05-18T23:24:45.381Z,59.70
2019-05-18T23:27:14.423Z,59.30
2019-05-18T23:29:43.581Z,60.00
2019-05-18T23:32:12.824Z,59.70
2019-05-18T23:34:42.068Z,59.70
2019-05-18T23:37:11.216Z,59.80
2019-05-18T23:39:40.470Z,60.00
2019-05-18T23:42:09.628Z,60.30
2019-05-18T23:44:39.074Z,60.50
2019-05-18T23:47:08.231Z,60.50
2019-05-18T23:49:37.405Z,60.70
2019-05-18T23:52:06.452Z,61.50
2019-05-18T23:54:35.648Z,61.70
2019-05-18T23:57:04.891Z,61.10
2019-05-18T23:59:33.995Z,62.20
